Conconully, Washington
Current Conditions -  °F | °C
As of 12:53 AM on Wednesday 26 Nov 2014 (Local Time) from KOMK Reporting Station
Haze Haze  
Wind Chill: 32°   Ceiling: 1400
Heat Index: 32°   Visibility: 1.5mi
Dew Point: 31°   Wind: 0mph
Humidity: 96%   Direction: NA
Pressure: 30.2"   Gusts: NA
Location:  48.56°N, 119.75°W
Report Text: KOMK 260853Z AUTO 00000KT 1 1/2SM BR FEW004 BKN014 OVC050 00/M01 A3020 RMK AO2 UPE0756 SLP240 P0000 60004 I1000 I3000 T00001006 58008
Loading
Personal Weather Stations






























Interactive Weather Map New forecast layout! Learn more

10-Day Weather Forecast

Advertisements
Track Severe Weather on mobile